createdAt,value
2022-12-22T00:00:11.815Z,18.00
2022-12-22T00:01:11.797Z,16.90
2022-12-22T00:02:11.927Z,14.30
2022-12-22T00:03:11.961Z,14.60
2022-12-22T00:04:11.910Z,14.50
2022-12-22T00:05:11.719Z,13.90
2022-12-22T00:06:11.673Z,14.50
2022-12-22T00:07:11.644Z,14.00
2022-12-22T00:08:11.619Z,14.70
2022-12-22T00:09:11.597Z,14.30
2022-12-22T00:10:11.567Z,14.20
2022-12-22T00:11:11.549Z,14.30
2022-12-22T00:12:11.513Z,14.50
2022-12-22T00:13:11.500Z,14.50
2022-12-22T00:14:11.499Z,14.40
2022-12-22T00:15:11.447Z,15.30
2022-12-22T00:16:11.435Z,14.70
2022-12-22T00:17:11.500Z,14.90
2022-12-22T00:18:11.381Z,15.60
2022-12-22T00:19:11.339Z,14.50
2022-12-22T00:20:18.172Z,14.40
2022-12-22T00:21:11.336Z,14.50
2022-12-22T00:22:11.263Z,15.10
2022-12-22T00:23:11.240Z,15.60
2022-12-22T00:24:11.246Z,14.70
2022-12-22T00:25:11.191Z,14.50
2022-12-22T00:26:11.164Z,15.50
2022-12-22T00:27:11.146Z,14.40
2022-12-22T00:28:11.112Z,15.10
2022-12-22T00:29:11.084Z,14.30
2022-12-22T00:30:11.075Z,14.20
2022-12-22T00:31:11.191Z,14.60
2022-12-22T00:32:11.008Z,14.90
2022-12-22T00:33:10.987Z,13.90
2022-12-22T00:34:10.956Z,15.00
2022-12-22T00:35:10.955Z,15.00
2022-12-22T00:36:10.906Z,14.70
2022-12-22T00:37:10.909Z,15.10
2022-12-22T00:38:10.866Z,14.90
2022-12-22T00:39:10.836Z,14.60
2022-12-22T00:40:10.808Z,14.90
2022-12-22T00:41:10.786Z,15.10
2022-12-22T00:42:10.761Z,14.20
2022-12-22T00:43:10.743Z,14.50
2022-12-22T00:44:10.711Z,13.90
2022-12-22T00:45:10.681Z,13.70
2022-12-22T00:46:10.728Z,14.20
2022-12-22T00:47:10.631Z,14.60
2022-12-22T00:48:10.608Z,14.60
2022-12-22T00:49:10.602Z,14.60
2022-12-22T00:50:10.554Z,14.90
2022-12-22T00:51:10.581Z,13.90
2022-12-22T00:52:10.513Z,14.50
2022-12-22T00:53:10.507Z,14.30
2022-12-22T00:54:10.464Z,14.60
2022-12-22T00:55:10.432Z,14.80
2022-12-22T00:56:10.410Z,14.20
2022-12-22T00:57:10.383Z,14.80
2022-12-22T00:58:10.349Z,14.80
2022-12-22T00:59:10.328Z,15.40
2022-12-22T01:00:10.309Z,14.90
2022-12-22T01:01:10.370Z,15.50
2022-12-22T01:02:10.465Z,15.30
2022-12-22T01:03:10.395Z,14.90
2022-12-22T01:04:10.201Z,14.90
2022-12-22T01:05:10.186Z,15.10
2022-12-22T01:06:10.147Z,14.90
2022-12-22T01:07:10.128Z,14.70
2022-12-22T01:08:10.109Z,14.90
2022-12-22T01:09:10.107Z,15.90
2022-12-22T01:10:10.085Z,16.00
2022-12-22T01:11:10.025Z,15.80
2022-12-22T01:12:10.005Z,15.20
2022-12-22T01:13:09.969Z,15.50
2022-12-22T01:14:09.950Z,15.80
2022-12-22T01:15:09.929Z,16.10
2022-12-22T01:16:09.960Z,15.30
2022-12-22T01:17:09.871Z,17.40
2022-12-22T01:18:09.853Z,16.30
2022-12-22T01:19:09.825Z,15.40
2022-12-22T01:20:09.818Z,16.00
2022-12-22T01:21:09.778Z,15.80
2022-12-22T01:22:09.750Z,17.90
2022-12-22T01:23:09.726Z,16.70
2022-12-22T01:24:09.697Z,15.60
2022-12-22T01:25:09.698Z,17.00
2022-12-22T01:26:09.647Z,16.80
2022-12-22T01:27:09.620Z,16.40
2022-12-22T01:28:09.603Z,17.50
2022-12-22T01:29:09.571Z,17.50
2022-12-22T01:30:09.548Z,17.40
2022-12-22T01:31:09.591Z,18.40
2022-12-22T01:32:09.492Z,18.50
2022-12-22T01:33:09.466Z,17.70
2022-12-22T01:34:09.448Z,18.00
2022-12-22T01:35:09.422Z,19.00
2022-12-22T01:36:09.403Z,17.70
2022-12-22T01:37:09.365Z,17.40
2022-12-22T01:38:09.353Z,17.40
2022-12-22T01:39:09.322Z,17.90
2022-12-22T01:40:09.302Z,17.90
2022-12-22T01:41:09.291Z,18.20
2022-12-22T01:42:09.266Z,18.20
2022-12-22T01:43:09.221Z,17.70
2022-12-22T01:44:09.192Z,18.30
2022-12-22T01:45:09.170Z,19.50
2022-12-22T01:46:09.235Z,18.60
2022-12-22T01:47:09.118Z,19.00
2022-12-22T01:48:09.096Z,18.60
2022-12-22T01:49:09.064Z,18.40
2022-12-22T01:50:09.040Z,18.00
2022-12-22T01:51:09.011Z,18.50
2022-12-22T01:52:08.989Z,19.40
2022-12-22T01:53:08.960Z,18.00
2022-12-22T01:54:08.937Z,18.50
2022-12-22T01:55:08.932Z,20.20
2022-12-22T01:56:08.888Z,19.60
2022-12-22T01:57:08.911Z,18.80
2022-12-22T01:58:08.843Z,19.10
2022-12-22T01:59:08.861Z,19.20
2022-12-22T02:00:08.790Z,19.60
2022-12-22T02:01:08.830Z,18.10
2022-12-22T02:02:08.833Z,19.10
2022-12-22T02:03:08.778Z,19.90
2022-12-22T02:04:08.683Z,19.10
2022-12-22T02:05:08.660Z,19.30
2022-12-22T02:06:08.641Z,19.20
2022-12-22T02:07:08.608Z,20.70
2022-12-22T02:08:08.589Z,20.20
2022-12-22T02:09:08.561Z,20.00
2022-12-22T02:10:08.544Z,18.80
2022-12-22T02:11:08.509Z,20.80
2022-12-22T02:12:08.484Z,20.10
2022-12-22T02:13:08.486Z,20.00
2022-12-22T02:14:08.442Z,20.40
2022-12-22T02:15:08.416Z,20.10
2022-12-22T02:16:08.453Z,19.60
2022-12-22T02:17:08.382Z,20.30
2022-12-22T02:18:08.336Z,20.80
2022-12-22T02:19:08.307Z,20.70
2022-12-22T02:20:08.292Z,20.50
2022-12-22T02:21:08.256Z,21.50
2022-12-22T02:22:08.255Z,21.10
2022-12-22T02:23:08.213Z,20.90
2022-12-22T02:24:08.188Z,20.50
2022-12-22T02:25:08.156Z,19.90
2022-12-22T02:26:08.134Z,20.70
2022-12-22T02:27:08.128Z,21.70
2022-12-22T02:28:08.085Z,19.90
2022-12-22T02:29:08.087Z,20.50
2022-12-22T02:30:08.032Z,22.00
2022-12-22T02:31:08.071Z,21.90
2022-12-22T02:32:07.987Z,22.00
2022-12-22T02:33:10.161Z,21.50
2022-12-22T02:34:07.941Z,20.70
2022-12-22T02:35:07.914Z,21.40
2022-12-22T02:36:07.882Z,21.70
2022-12-22T02:37:07.852Z,21.50
2022-12-22T02:38:07.830Z,21.70
2022-12-22T02:39:07.805Z,21.10
2022-12-22T02:40:07.800Z,21.10
2022-12-22T02:41:07.759Z,22.10
2022-12-22T02:42:07.734Z,21.10
2022-12-22T02:43:07.702Z,21.70
2022-12-22T02:44:07.680Z,22.00
2022-12-22T02:45:07.729Z,22.40
2022-12-22T02:46:07.691Z,23.00
2022-12-22T02:47:07.599Z,22.00
2022-12-22T02:48:07.576Z,22.30
2022-12-22T02:49:07.554Z,23.00
2022-12-22T02:50:07.532Z,20.40
2022-12-22T02:51:07.512Z,21.30
2022-12-22T02:52:07.477Z,21.80
2022-12-22T02:53:07.462Z,22.20
2022-12-22T02:54:07.442Z,22.10
2022-12-22T02:55:07.400Z,22.60
2022-12-22T02:56:07.377Z,23.00
2022-12-22T02:57:07.345Z,23.10
2022-12-22T02:58:07.331Z,23.70
2022-12-22T02:59:07.305Z,23.90
2022-12-22T03:00:07.276Z,23.60
2022-12-22T03:01:07.270Z,24.10
2022-12-22T03:02:07.395Z,24.10
2022-12-22T03:03:07.384Z,24.30
2022-12-22T03:04:07.176Z,24.40
2022-12-22T03:05:07.156Z,24.00
2022-12-22T03:06:07.134Z,24.20
2022-12-22T03:07:07.097Z,23.70
2022-12-22T03:08:08.727Z,23.50
2022-12-22T03:09:07.049Z,23.60
2022-12-22T03:10:07.033Z,23.80
2022-12-22T03:11:06.997Z,24.10
2022-12-22T03:12:06.987Z,24.30
2022-12-22T03:13:07.023Z,23.70
2022-12-22T03:14:06.952Z,23.30
2022-12-22T03:15:06.900Z,22.80
2022-12-22T03:16:07.100Z,23.20
2022-12-22T03:17:06.872Z,22.70
2022-12-22T03:18:06.820Z,23.10
2022-12-22T03:19:06.795Z,23.10
2022-12-22T03:20:06.778Z,22.90
2022-12-22T03:21:06.749Z,22.70
2022-12-22T03:22:06.722Z,22.90
2022-12-22T03:23:06.691Z,23.00
2022-12-22T03:24:06.667Z,23.30
2022-12-22T03:25:06.641Z,22.70
2022-12-22T03:26:06.622Z,21.80
2022-12-22T03:27:06.593Z,22.40
2022-12-22T03:28:06.566Z,23.10
2022-12-22T03:29:06.546Z,22.80
2022-12-22T03:30:06.520Z,22.70
2022-12-22T03:31:06.528Z,24.70
2022-12-22T03:32:06.475Z,22.40
2022-12-22T03:33:06.494Z,22.40
2022-12-22T03:34:06.423Z,22.80
2022-12-22T03:35:06.391Z,22.70
2022-12-22T03:36:06.380Z,23.40
2022-12-22T03:37:06.339Z,23.20
2022-12-22T03:38:06.315Z,22.90
2022-12-22T03:39:06.295Z,23.20
2022-12-22T03:40:06.268Z,23.50
2022-12-22T03:41:06.239Z,22.80
2022-12-22T03:42:06.218Z,22.90
2022-12-22T03:43:06.185Z,23.80
2022-12-22T03:44:06.163Z,22.40
2022-12-22T03:45:06.136Z,22.90
2022-12-22T03:46:06.134Z,22.80
2022-12-22T03:47:06.196Z,22.30
2022-12-22T03:48:06.069Z,22.40
2022-12-22T03:49:06.084Z,23.00
2022-12-22T03:50:06.013Z,24.30
2022-12-22T03:51:05.984Z,22.90
2022-12-22T03:52:05.988Z,23.00
2022-12-22T03:53:05.956Z,23.40
2022-12-22T03:54:05.912Z,23.90
2022-12-22T03:55:05.881Z,22.80
2022-12-22T03:56:08.178Z,23.20
2022-12-22T03:57:05.832Z,23.80
2022-12-22T03:58:05.813Z,22.60
2022-12-22T03:59:05.783Z,22.80
2022-12-22T04:00:05.767Z,23.10
2022-12-22T04:01:05.830Z,24.10
2022-12-22T04:02:05.880Z,23.50
2022-12-22T04:03:06.042Z,23.80
2022-12-22T04:04:05.662Z,23.60
2022-12-22T04:05:05.656Z,23.30
2022-12-22T04:06:05.616Z,23.80
2022-12-22T04:07:05.579Z,22.90
2022-12-22T04:08:05.563Z,24.20
2022-12-22T04:09:05.533Z,24.30
2022-12-22T04:10:05.517Z,23.70
2022-12-22T04:11:05.481Z,23.10
2022-12-22T04:12:05.456Z,23.50
2022-12-22T04:13:05.432Z,23.60
2022-12-22T04:14:05.409Z,24.20
2022-12-22T04:15:05.382Z,24.10
2022-12-22T04:16:05.419Z,22.50
2022-12-22T04:17:05.349Z,22.60
2022-12-22T04:18:05.320Z,23.20
2022-12-22T04:19:05.287Z,23.70
2022-12-22T04:20:05.274Z,23.10
2022-12-22T04:21:05.254Z,23.20
2022-12-22T04:22:05.265Z,23.40
2022-12-22T04:23:05.183Z,23.10
2022-12-22T04:24:05.155Z,23.20
2022-12-22T04:25:05.134Z,23.30
2022-12-22T04:26:05.108Z,22.40
2022-12-22T04:27:05.077Z,23.40
2022-12-22T04:28:05.052Z,22.40
2022-12-22T04:29:05.080Z,23.30
2022-12-22T04:30:05.009Z,22.30
2022-12-22T04:31:04.986Z,22.10
2022-12-22T04:32:05.050Z,22.20
2022-12-22T04:33:04.943Z,22.10
2022-12-22T04:34:04.905Z,21.60
2022-12-22T04:35:04.892Z,21.70
2022-12-22T04:36:04.858Z,21.10
2022-12-22T04:37:14.912Z,21.70
2022-12-22T04:38:04.809Z,22.10
2022-12-22T04:39:04.795Z,21.60
2022-12-22T04:40:04.756Z,21.40
2022-12-22T04:41:04.736Z,22.00
2022-12-22T04:42:04.709Z,21.50
2022-12-22T04:43:04.676Z,22.60
2022-12-22T04:44:04.658Z,22.50
2022-12-22T04:45:04.629Z,22.50
2022-12-22T04:46:04.670Z,21.70
2022-12-22T04:47:04.593Z,21.50
2022-12-22T04:48:04.557Z,20.30
2022-12-22T04:49:04.526Z,22.10
2022-12-22T04:50:04.517Z,21.10
2022-12-22T04:51:04.489Z,21.60
2022-12-22T04:52:04.465Z,20.60
2022-12-22T04:53:04.491Z,20.10
2022-12-22T04:54:04.414Z,22.00
2022-12-22T04:55:04.380Z,20.70
2022-12-22T04:56:04.363Z,20.10
2022-12-22T04:57:04.344Z,20.70
2022-12-22T04:58:04.308Z,20.50
2022-12-22T04:59:04.286Z,20.70
2022-12-22T05:00:04.260Z,19.80
2022-12-22T05:01:04.247Z,20.80
2022-12-22T05:02:04.412Z,19.90
2022-12-22T05:03:04.325Z,20.70
2022-12-22T05:04:04.152Z,20.10
2022-12-22T05:05:04.129Z,19.40
2022-12-22T05:06:04.105Z,20.50
2022-12-22T05:07:04.081Z,20.10
2022-12-22T05:08:04.052Z,19.40
2022-12-22T05:09:04.064Z,20.00
2022-12-22T05:10:04.029Z,19.60
2022-12-22T05:11:04.010Z,19.80
2022-12-22T05:12:03.951Z,19.20
2022-12-22T05:13:03.930Z,19.90
2022-12-22T05:14:07.425Z,19.80
2022-12-22T05:15:03.882Z,20.00
2022-12-22T05:16:03.863Z,19.90
2022-12-22T05:17:03.900Z,19.80
2022-12-22T05:18:03.814Z,20.30
2022-12-22T05:19:03.777Z,19.80
2022-12-22T05:20:03.748Z,20.00
2022-12-22T05:21:03.738Z,20.20
2022-12-22T05:22:03.702Z,20.30
2022-12-22T05:23:03.684Z,19.70
2022-12-22T05:24:03.650Z,20.10
2022-12-22T05:25:03.667Z,20.90
2022-12-22T05:26:03.604Z,21.60
2022-12-22T05:27:03.598Z,19.10
2022-12-22T05:28:03.551Z,19.00
2022-12-22T05:29:03.536Z,21.80
2022-12-22T05:30:03.503Z,20.00
2022-12-22T05:31:03.567Z,19.90
2022-12-22T05:32:03.451Z,20.20
2022-12-22T05:33:03.439Z,18.90
2022-12-22T05:34:03.401Z,19.70
2022-12-22T05:35:03.403Z,19.60
2022-12-22T05:36:03.363Z,18.00
2022-12-22T05:37:03.327Z,20.40
2022-12-22T05:38:03.299Z,18.70
2022-12-22T05:39:03.277Z,20.10
2022-12-22T05:40:03.278Z,21.70
2022-12-22T05:41:04.623Z,18.50
2022-12-22T05:42:03.203Z,20.60
2022-12-22T05:43:03.178Z,21.20
2022-12-22T05:44:03.149Z,19.50
2022-12-22T05:45:03.131Z,19.20
2022-12-22T05:46:03.139Z,19.80
2022-12-22T05:47:03.074Z,19.40
2022-12-22T05:48:03.058Z,19.30
2022-12-22T05:49:03.033Z,18.80
2022-12-22T05:50:02.998Z,19.30
2022-12-22T05:51:02.979Z,19.00
2022-12-22T05:52:02.947Z,19.80
2022-12-22T05:53:02.931Z,20.00
2022-12-22T05:54:02.935Z,23.90
2022-12-22T05:55:02.877Z,19.30
2022-12-22T05:56:02.861Z,20.20
2022-12-22T05:57:02.847Z,19.60
2022-12-22T05:58:02.806Z,19.00
2022-12-22T05:59:02.781Z,19.20
2022-12-22T06:00:02.754Z,18.40
2022-12-22T06:01:02.745Z,18.80
2022-12-22T06:02:02.779Z,18.60
2022-12-22T06:03:02.873Z,17.30
2022-12-22T06:04:02.872Z,18.40
2022-12-22T06:05:02.656Z,18.90
2022-12-22T06:06:02.603Z,18.30
2022-12-22T06:07:02.590Z,18.20
2022-12-22T06:08:02.554Z,17.20
2022-12-22T06:09:02.534Z,17.30
2022-12-22T06:10:07.822Z,17.10
2022-12-22T06:11:02.489Z,17.40
2022-12-22T06:12:02.455Z,17.60
2022-12-22T06:13:02.452Z,16.90
2022-12-22T06:14:02.403Z,17.20
2022-12-22T06:15:02.380Z,16.90
2022-12-22T06:16:02.395Z,16.80
2022-12-22T06:17:02.328Z,17.40
2022-12-22T06:18:02.302Z,18.30
2022-12-22T06:19:02.284Z,17.00
2022-12-22T06:20:02.307Z,16.50
2022-12-22T06:21:02.245Z,17.10
2022-12-22T06:22:02.201Z,16.90
2022-12-22T06:23:02.208Z,17.80
2022-12-22T06:24:02.152Z,16.60
2022-12-22T06:25:02.142Z,16.50
2022-12-22T06:26:02.101Z,17.10
2022-12-22T06:27:02.085Z,17.50
2022-12-22T06:28:02.057Z,17.60
2022-12-22T06:29:02.058Z,18.30
2022-12-22T06:30:02.008Z,17.20
2022-12-22T06:31:02.038Z,17.00
2022-12-22T06:32:01.949Z,18.20
2022-12-22T06:33:01.937Z,22.20
2022-12-22T06:34:01.918Z,24.20
2022-12-22T06:35:01.888Z,21.20
2022-12-22T06:36:01.856Z,20.50
2022-12-22T06:37:01.826Z,19.50
2022-12-22T06:38:01.802Z,18.60
2022-12-22T06:39:01.779Z,19.10
2022-12-22T06:40:01.792Z,18.10
2022-12-22T06:41:01.728Z,19.40
2022-12-22T06:42:01.708Z,16.50
2022-12-22T06:43:08.008Z,17.40
2022-12-22T06:44:01.648Z,18.10
2022-12-22T06:45:01.659Z,18.80
2022-12-22T06:46:01.668Z,16.30
2022-12-22T06:47:01.586Z,18.90
2022-12-22T06:48:01.555Z,20.90
2022-12-22T06:49:01.525Z,19.30
2022-12-22T06:50:01.529Z,19.20
2022-12-22T06:51:01.493Z,21.70
2022-12-22T06:52:01.449Z,20.90
2022-12-22T06:53:01.435Z,24.50
2022-12-22T06:54:01.401Z,22.20
2022-12-22T06:55:01.378Z,20.20
2022-12-22T06:56:01.350Z,20.20
2022-12-22T06:57:01.330Z,16.80
2022-12-22T06:58:01.304Z,19.20
2022-12-22T06:59:01.277Z,21.80
2022-12-22T07:00:01.293Z,21.40
2022-12-22T07:01:01.250Z,24.10
2022-12-22T07:02:01.360Z,26.20
2022-12-22T07:03:01.563Z,22.20
2022-12-22T07:04:01.246Z,20.30
2022-12-22T07:05:01.130Z,18.70
2022-12-22T07:06:01.120Z,19.30
2022-12-22T07:07:01.080Z,19.10
2022-12-22T07:08:07.588Z,19.30
2022-12-22T07:09:01.023Z,18.50
2022-12-22T07:10:01.027Z,20.60
2022-12-22T07:11:00.972Z,20.90
2022-12-22T07:12:00.961Z,16.80
2022-12-22T07:13:00.937Z,19.60
2022-12-22T07:14:00.905Z,19.60
2022-12-22T07:15:00.882Z,15.20
2022-12-22T07:16:01.870Z,17.80
2022-12-22T07:17:00.871Z,19.20
2022-12-22T07:18:00.808Z,17.90
2022-12-22T07:19:00.779Z,18.60
2022-12-22T07:20:00.751Z,18.40
2022-12-22T07:21:00.744Z,18.00
2022-12-22T07:22:00.714Z,17.20
2022-12-22T07:23:00.682Z,17.50
2022-12-22T07:24:00.655Z,19.00
2022-12-22T07:25:00.631Z,18.70
2022-12-22T07:26:00.634Z,21.90
2022-12-22T07:27:00.583Z,28.10
2022-12-22T07:28:00.557Z,21.30
2022-12-22T07:29:00.525Z,22.30
2022-12-22T07:30:00.497Z,23.80
2022-12-22T07:31:00.539Z,22.40
2022-12-22T07:32:00.450Z,24.40
2022-12-22T07:33:00.458Z,22.10
2022-12-22T07:34:00.399Z,24.90
2022-12-22T07:35:05.334Z,24.50
2022-12-22T07:36:00.346Z,28.30
2022-12-22T07:37:00.332Z,27.30
2022-12-22T07:38:00.297Z,25.80
2022-12-22T07:39:00.276Z,29.40
2022-12-22T07:40:00.256Z,30.50
2022-12-22T07:41:04.850Z,31.60
2022-12-22T07:42:00.196Z,32.40
2022-12-22T07:43:00.185Z,31.40
2022-12-22T07:44:00.150Z,33.50
2022-12-22T07:45:00.163Z,30.90
2022-12-22T07:46:00.342Z,33.40
2022-12-22T07:47:00.210Z,37.10
2022-12-22T07:48:00.077Z,34.00
2022-12-22T07:49:00.074Z,33.40
2022-12-22T07:50:00.011Z,35.60
2022-12-22T07:50:59.969Z,34.30
2022-12-22T07:51:59.941Z,33.80
2022-12-22T07:52:59.931Z,35.60
2022-12-22T07:53:59.894Z,31.00
2022-12-22T07:54:59.883Z,34.80
2022-12-22T07:55:59.846Z,33.80
2022-12-22T07:56:59.830Z,34.20
2022-12-22T07:57:59.795Z,34.50
2022-12-22T07:58:59.774Z,33.90
2022-12-22T07:59:59.744Z,36.40
2022-12-22T08:00:59.728Z,34.60
2022-12-22T08:01:59.804Z,31.50
2022-12-22T08:02:59.817Z,36.20
2022-12-22T08:03:59.642Z,34.20
2022-12-22T08:04:59.704Z,36.70
2022-12-22T08:05:59.594Z,37.80
2022-12-22T08:06:59.575Z,39.20
2022-12-22T08:07:59.550Z,37.20
2022-12-22T08:08:59.550Z,38.50
2022-12-22T08:09:59.492Z,35.90
2022-12-22T08:10:59.470Z,31.90
2022-12-22T08:11:59.443Z,35.90
2022-12-22T08:12:59.496Z,38.20
2022-12-22T08:14:01.930Z,38.10
2022-12-22T08:14:59.371Z,33.00
2022-12-22T08:15:59.369Z,33.00
2022-12-22T08:16:59.326Z,36.70
2022-12-22T08:17:59.391Z,34.00
2022-12-22T08:18:59.288Z,31.60
2022-12-22T08:19:59.239Z,33.10
2022-12-22T08:20:59.238Z,32.90
2022-12-22T08:21:59.184Z,32.90
2022-12-22T08:22:59.169Z,34.00
2022-12-22T08:23:59.166Z,32.40
2022-12-22T08:24:59.111Z,32.10
2022-12-22T08:25:59.107Z,32.40
2022-12-22T08:26:59.071Z,30.80
2022-12-22T08:27:59.045Z,30.00
2022-12-22T08:28:59.010Z,32.00
2022-12-22T08:29:58.982Z,33.00
2022-12-22T08:30:58.971Z,30.00
2022-12-22T08:31:58.997Z,29.90
2022-12-22T08:32:58.906Z,31.00
2022-12-22T08:33:58.888Z,29.20
2022-12-22T08:34:58.861Z,30.10
2022-12-22T08:36:05.853Z,31.10
2022-12-22T08:36:58.843Z,30.80
2022-12-22T08:37:58.780Z,29.30
2022-12-22T08:38:58.785Z,30.00
2022-12-22T08:39:58.735Z,29.40
2022-12-22T08:40:58.709Z,28.00
2022-12-22T08:41:58.706Z,27.30
2022-12-22T08:42:58.657Z,27.50
2022-12-22T08:43:58.635Z,28.40
2022-12-22T08:44:58.616Z,27.90
2022-12-22T08:45:58.590Z,27.20
2022-12-22T08:46:58.716Z,27.70
2022-12-22T08:47:58.550Z,27.10
2022-12-22T08:48:58.509Z,30.40
2022-12-22T08:49:58.479Z,40.50
2022-12-22T08:50:58.454Z,27.90
2022-12-22T08:51:58.422Z,26.90
2022-12-22T08:52:58.440Z,26.80
2022-12-22T08:54:06.720Z,26.50
2022-12-22T08:54:58.356Z,26.90
2022-12-22T08:55:58.323Z,27.60
2022-12-22T08:56:58.299Z,27.30
2022-12-22T08:57:58.270Z,28.60
2022-12-22T08:58:58.257Z,27.40
2022-12-22T08:59:58.224Z,33.10
2022-12-22T09:00:58.262Z,27.40
2022-12-22T09:01:58.346Z,25.50
2022-12-22T09:02:58.271Z,27.80
2022-12-22T09:03:58.120Z,25.60
2022-12-22T09:04:58.098Z,25.60
2022-12-22T09:05:58.081Z,25.80
2022-12-22T09:06:58.046Z,26.60
2022-12-22T09:07:58.027Z,25.50
2022-12-22T09:08:58.026Z,26.40
2022-12-22T09:09:57.976Z,25.10
2022-12-22T09:10:57.950Z,26.00
2022-12-22T09:11:57.917Z,25.00
2022-12-22T09:12:57.895Z,27.80
2022-12-22T09:13:57.869Z,26.60
2022-12-22T09:14:57.848Z,25.40
2022-12-22T09:15:57.859Z,25.40
2022-12-22T09:16:57.932Z,25.20
2022-12-22T09:17:57.777Z,26.20
2022-12-22T09:18:57.765Z,26.90
2022-12-22T09:19:57.725Z,26.20
2022-12-22T09:20:57.702Z,26.20
2022-12-22T09:21:57.666Z,25.60
2022-12-22T09:22:57.643Z,25.90
2022-12-22T09:23:57.620Z,25.50
2022-12-22T09:24:57.622Z,26.70
2022-12-22T09:25:57.573Z,27.50
2022-12-22T09:26:57.540Z,30.10
2022-12-22T09:27:57.512Z,37.40
2022-12-22T09:28:57.492Z,28.40
2022-12-22T09:29:57.465Z,30.00
2022-12-22T09:30:57.445Z,38.80
2022-12-22T09:31:57.534Z,27.40
2022-12-22T09:32:57.392Z,25.20
2022-12-22T09:33:57.366Z,25.30
2022-12-22T09:34:57.354Z,24.60
2022-12-22T09:35:57.319Z,24.50
2022-12-22T09:36:57.332Z,26.60
2022-12-22T09:37:57.282Z,27.60
2022-12-22T09:38:57.272Z,27.40
2022-12-22T09:39:57.220Z,29.60
2022-12-22T09:40:57.217Z,27.80
2022-12-22T09:41:57.182Z,25.80
2022-12-22T09:42:57.147Z,24.80
2022-12-22T09:43:57.114Z,25.20
2022-12-22T09:44:57.093Z,25.60
2022-12-22T09:45:57.105Z,24.90
2022-12-22T09:46:57.078Z,24.30
2022-12-22T09:47:57.027Z,26.60
2022-12-22T09:48:56.998Z,25.10
2022-12-22T09:49:56.965Z,23.40
2022-12-22T09:50:56.933Z,24.60
2022-12-22T09:51:56.943Z,24.80
2022-12-22T09:52:56.888Z,24.00
2022-12-22T09:53:56.863Z,23.00
2022-12-22T09:54:56.834Z,23.10
2022-12-22T09:55:56.805Z,23.80
2022-12-22T09:56:56.816Z,23.40
2022-12-22T09:57:56.763Z,22.70
2022-12-22T09:58:56.731Z,23.30
2022-12-22T09:59:56.714Z,23.20
2022-12-22T10:00:56.792Z,22.20
2022-12-22T10:01:56.788Z,23.00
2022-12-22T10:02:56.693Z,24.00
2022-12-22T10:04:00.445Z,23.10
2022-12-22T10:04:56.579Z,24.60
2022-12-22T10:05:56.558Z,24.60
2022-12-22T10:06:56.534Z,24.50
2022-12-22T10:07:56.506Z,25.00
2022-12-22T10:08:56.481Z,24.80
2022-12-22T10:09:56.497Z,25.40
2022-12-22T10:10:56.434Z,25.60
2022-12-22T10:11:56.426Z,25.80
2022-12-22T10:12:56.474Z,25.20
2022-12-22T10:13:56.365Z,26.50
2022-12-22T10:14:56.328Z,26.40
2022-12-22T10:15:56.303Z,26.30
2022-12-22T10:16:56.359Z,24.20
2022-12-22T10:17:56.269Z,25.00
2022-12-22T10:18:56.233Z,28.00
2022-12-22T10:19:56.205Z,25.00
2022-12-22T10:20:56.194Z,25.60
2022-12-22T10:21:56.158Z,25.10
2022-12-22T10:22:56.126Z,24.90
2022-12-22T10:23:56.101Z,29.10
2022-12-22T10:24:56.080Z,25.70
2022-12-22T10:26:56.021Z,24.80
2022-12-22T10:27:55.996Z,30.20
2022-12-22T10:28:56.000Z,44.90
2022-12-22T10:29:55.961Z,25.60
2022-12-22T10:30:55.929Z,24.40
2022-12-22T10:31:55.939Z,24.10
2022-12-22T10:32:55.875Z,23.30
2022-12-22T10:33:55.850Z,23.20
2022-12-22T10:34:55.822Z,26.80
2022-12-22T10:35:55.796Z,31.10
2022-12-22T10:36:55.769Z,23.10
2022-12-22T10:37:55.768Z,23.70
2022-12-22T10:38:55.724Z,24.10
2022-12-22T10:39:55.705Z,22.70
2022-12-22T10:41:01.757Z,23.50
2022-12-22T10:41:55.665Z,21.90
2022-12-22T10:42:55.621Z,23.30
2022-12-22T10:43:55.597Z,27.10
2022-12-22T10:44:55.593Z,23.80
2022-12-22T10:45:55.657Z,26.90
2022-12-22T10:46:55.521Z,28.20
2022-12-22T10:47:55.493Z,24.00
2022-12-22T10:48:55.469Z,25.30
2022-12-22T10:50:34.917Z,24.50
2022-12-22T10:51:34.895Z,23.80
2022-12-22T10:52:34.875Z,27.10
2022-12-22T10:53:34.840Z,28.70
2022-12-22T10:54:34.840Z,27.00
2022-12-22T10:55:34.782Z,26.70
2022-12-22T10:56:34.769Z,27.10
2022-12-22T10:57:34.749Z,25.70
2022-12-22T10:58:34.716Z,23.60
2022-12-22T10:59:34.692Z,25.40
2022-12-22T11:00:34.688Z,25.40
2022-12-22T11:01:34.717Z,25.60
2022-12-22T11:02:34.823Z,24.00
2022-12-22T11:03:34.707Z,24.30
2022-12-22T11:04:34.570Z,25.80
2022-12-22T11:05:34.543Z,25.50
2022-12-22T11:06:34.519Z,27.80
2022-12-22T11:07:34.495Z,25.30
2022-12-22T11:08:34.469Z,23.70
2022-12-22T11:09:35.561Z,24.50
2022-12-22T11:10:34.420Z,24.10
2022-12-22T11:11:34.391Z,24.20
2022-12-22T11:12:34.372Z,23.90
2022-12-22T11:13:34.340Z,24.10
2022-12-22T11:14:34.337Z,22.90
2022-12-22T11:15:34.288Z,23.00
2022-12-22T11:16:34.361Z,24.20
2022-12-22T11:17:34.235Z,24.50
2022-12-22T11:18:34.215Z,23.90
2022-12-22T11:19:34.190Z,23.50
2022-12-22T11:20:34.165Z,24.20
2022-12-22T11:21:34.138Z,23.80
2022-12-22T11:22:34.120Z,24.70
2022-12-22T11:23:34.084Z,24.00
2022-12-22T11:24:34.065Z,23.30
2022-12-22T11:25:34.037Z,23.80
2022-12-22T11:26:34.013Z,25.70
2022-12-22T11:27:33.988Z,27.30
2022-12-22T11:28:33.968Z,24.10
2022-12-22T11:29:33.946Z,24.30
2022-12-22T11:30:34.000Z,24.20
2022-12-22T11:31:33.924Z,24.70
2022-12-22T11:32:33.889Z,22.70
2022-12-22T11:33:33.844Z,24.20
2022-12-22T11:34:33.816Z,22.90
2022-12-22T11:35:33.787Z,22.50
2022-12-22T11:36:33.764Z,23.30
2022-12-22T11:37:33.737Z,24.10
2022-12-22T11:38:33.719Z,23.10
2022-12-22T11:39:33.684Z,23.20
2022-12-22T11:40:33.668Z,21.70
2022-12-22T11:41:33.647Z,22.70
2022-12-22T11:42:33.613Z,24.40
2022-12-22T11:43:33.582Z,23.20
2022-12-22T11:44:33.563Z,22.90
2022-12-22T11:45:39.130Z,23.40
2022-12-22T11:46:33.582Z,23.90
2022-12-22T11:47:33.490Z,22.10
2022-12-22T11:48:33.496Z,23.00
2022-12-22T11:49:33.436Z,22.40
2022-12-22T11:51:00.965Z,20.60
2022-12-22T11:51:33.400Z,21.50
2022-12-22T11:52:33.368Z,21.00
2022-12-22T11:53:33.329Z,20.70
2022-12-22T11:54:33.312Z,21.30
2022-12-22T11:55:33.295Z,21.10
2022-12-22T11:56:33.260Z,22.70
2022-12-22T11:57:33.233Z,22.20
2022-12-22T11:58:33.216Z,23.00
2022-12-22T11:59:33.194Z,21.80
2022-12-22T12:01:04.193Z,22.70
2022-12-22T12:01:33.177Z,22.40
2022-12-22T12:02:33.178Z,21.40
2022-12-22T12:03:33.296Z,22.40
2022-12-22T12:04:33.108Z,22.20
2022-12-22T12:05:33.030Z,21.80
2022-12-22T12:06:33.010Z,21.50
2022-12-22T12:07:33.034Z,22.20
2022-12-22T12:08:32.959Z,21.40
2022-12-22T12:09:32.929Z,22.60
2022-12-22T12:10:32.907Z,29.30
2022-12-22T12:11:32.883Z,24.70
2022-12-22T12:12:32.859Z,23.60
2022-12-22T12:13:37.013Z,22.50
2022-12-22T12:14:32.804Z,28.70
2022-12-22T12:15:32.777Z,24.50
2022-12-22T12:16:32.870Z,25.10
2022-12-22T12:17:32.728Z,24.00
2022-12-22T12:18:32.709Z,22.30
2022-12-22T12:19:32.680Z,22.70
2022-12-22T12:20:32.676Z,21.00
2022-12-22T12:21:32.627Z,22.10
2022-12-22T12:22:32.607Z,20.10
2022-12-22T12:23:32.586Z,21.30
2022-12-22T12:24:32.553Z,19.90
2022-12-22T12:25:32.527Z,19.70
2022-12-22T12:26:32.499Z,19.70
2022-12-22T12:27:32.476Z,20.90
2022-12-22T12:28:32.459Z,21.00
2022-12-22T12:29:32.458Z,19.70
2022-12-22T12:30:40.036Z,19.50
2022-12-22T12:31:32.399Z,19.00
2022-12-22T12:32:32.354Z,19.00
2022-12-22T12:33:32.331Z,20.00
2022-12-22T12:34:32.306Z,18.40
2022-12-22T12:35:32.287Z,18.10
2022-12-22T12:36:32.274Z,16.80
2022-12-22T12:37:32.247Z,17.60
2022-12-22T12:39:06.348Z,17.20
2022-12-22T12:39:32.177Z,16.60
2022-12-22T12:40:32.151Z,16.50
2022-12-22T12:41:32.124Z,17.50
2022-12-22T12:42:32.138Z,16.70
2022-12-22T12:43:32.081Z,17.40
2022-12-22T12:44:32.049Z,16.50
2022-12-22T12:45:32.045Z,16.00
2022-12-22T12:46:32.105Z,17.00
2022-12-22T12:47:31.995Z,15.70
2022-12-22T12:48:31.957Z,16.20
2022-12-22T12:49:31.921Z,17.00
2022-12-22T12:50:31.916Z,16.00
2022-12-22T12:51:31.882Z,17.30
2022-12-22T12:52:31.870Z,17.70
2022-12-22T12:53:31.834Z,17.60